sensor_id;sensor_type;location;lat;lon;timestamp;temperature;humidity
52127;DHT22;38120;53.176;6.614;2024-01-30T00:01:50;5.60;99.90
52127;DHT22;38120;53.176;6.614;2024-01-30T00:04:16;5.70;99.90
52127;DHT22;38120;53.176;6.614;2024-01-30T00:06:43;5.60;99.90
52127;DHT22;38120;53.176;6.614;2024-01-30T00:09:09;5.60;99.90
52127;DHT22;38120;53.176;6.614;2024-01-30T00:11:35;5.60;99.90
52127;DHT22;38120;53.176;6.614;2024-01-30T00:14:01;5.50;99.90
52127;DHT22;38120;53.176;6.614;2024-01-30T00:16:27;5.50;99.90
52127;DHT22;38120;53.176;6.614;2024-01-30T00:18:54;5.40;99.90
52127;DHT22;38120;53.176;6.614;2024-01-30T00:21:20;5.40;99.90
52127;DHT22;38120;53.176;6.614;2024-01-30T00:23:47;5.50;99.90
52127;DHT22;38120;53.176;6.614;2024-01-30T00:26:13;5.40;99.90
52127;DHT22;38120;53.176;6.614;2024-01-30T00:28:41;5.40;99.90
52127;DHT22;38120;53.176;6.614;2024-01-30T00:31:06;5.40;99.90
52127;DHT22;38120;53.176;6.614;2024-01-30T00:33:32;5.40;99.90
52127;DHT22;38120;53.176;6.614;2024-01-30T00:35:58;5.30;99.90
52127;DHT22;38120;53.176;6.614;2024-01-30T00:38:24;6.40;99.90
52127;DHT22;38120;53.176;6.614;2024-01-30T00:40:49;5.40;99.90
52127;DHT22;38120;53.176;6.614;2024-01-30T00:43:16;5.90;99.90
52127;DHT22;38120;53.176;6.614;2024-01-30T00:45:44;5.40;99.90
52127;DHT22;38120;53.176;6.614;2024-01-30T00:48:09;5.50;99.90
52127;DHT22;38120;53.176;6.614;2024-01-30T00:50:35;5.50;99.90
52127;DHT22;38120;53.176;6.614;2024-01-30T00:53:01;5.50;99.90
52127;DHT22;38120;53.176;6.614;2024-01-30T00:55:27;5.50;99.90
52127;DHT22;38120;53.176;6.614;2024-01-30T00:57:52;5.50;99.90
52127;DHT22;38120;53.176;6.614;2024-01-30T01:00:18;5.60;99.90
52127;DHT22;38120;53.176;6.614;2024-01-30T01:02:46;5.50;99.90
52127;DHT22;38120;53.176;6.614;2024-01-30T01:05:12;5.50;99.90
52127;DHT22;38120;53.176;6.614;2024-01-30T01:07:37;5.50;99.90
52127;DHT22;38120;53.176;6.614;2024-01-30T01:10:03;5.50;99.90
52127;DHT22;38120;53.176;6.614;2024-01-30T01:12:29;5.50;99.90
52127;DHT22;38120;53.176;6.614;2024-01-30T01:14:55;6.90;99.90
52127;DHT22;38120;53.176;6.614;2024-01-30T01:17:20;6.70;99.90
52127;DHT22;38120;53.176;6.614;2024-01-30T01:19:52;5.70;99.90
52127;DHT22;38120;53.176;6.614;2024-01-30T01:22:18;5.70;99.90
52127;DHT22;38120;53.176;6.614;2024-01-30T01:24:43;5.70;99.90
52127;DHT22;38120;53.176;6.614;2024-01-30T01:27:09;5.70;99.90
52127;DHT22;38120;53.176;6.614;2024-01-30T01:29:35;6.70;99.90
52127;DHT22;38120;53.176;6.614;2024-01-30T01:32:00;5.80;99.90
52127;DHT22;38120;53.176;6.614;2024-01-30T01:34:26;5.90;99.90
52127;DHT22;38120;53.176;6.614;2024-01-30T01:36:52;6.00;99.90
52127;DHT22;38120;53.176;6.614;2024-01-30T01:39:21;6.30;99.90
52127;DHT22;38120;53.176;6.614;2024-01-30T01:41:48;6.00;99.90
52127;DHT22;38120;53.176;6.614;2024-01-30T01:44:14;6.00;99.90
52127;DHT22;38120;53.176;6.614;2024-01-30T01:46:39;6.00;99.90
52127;DHT22;38120;53.176;6.614;2024-01-30T01:49:06;6.10;99.90
52127;DHT22;38120;53.176;6.614;2024-01-30T01:51:34;6.10;99.90
52127;DHT22;38120;53.176;6.614;2024-01-30T01:54:04;6.00;99.90
52127;DHT22;38120;53.176;6.614;2024-01-30T01:56:31;6.10;99.90
52127;DHT22;38120;53.176;6.614;2024-01-30T01:59:06;6.30;99.90
52127;DHT22;38120;53.176;6.614;2024-01-30T02:01:33;6.10;99.90
52127;DHT22;38120;53.176;6.614;2024-01-30T02:04:00;6.20;99.90
52127;DHT22;38120;53.176;6.614;2024-01-30T02:06:26;6.10;99.90
52127;DHT22;38120;53.176;6.614;2024-01-30T02:08:52;6.10;99.90
52127;DHT22;38120;53.176;6.614;2024-01-30T02:11:19;6.10;99.90
52127;DHT22;38120;53.176;6.614;2024-01-30T02:13:45;6.10;99.90
52127;DHT22;38120;53.176;6.614;2024-01-30T02:16:11;6.10;99.90
52127;DHT22;38120;53.176;6.614;2024-01-30T02:18:37;6.10;99.90
52127;DHT22;38120;53.176;6.614;2024-01-30T02:21:07;6.00;99.90
52127;DHT22;38120;53.176;6.614;2024-01-30T02:23:33;6.10;99.90
52127;DHT22;38120;53.176;6.614;2024-01-30T02:26:00;6.10;99.90
52127;DHT22;38120;53.176;6.614;2024-01-30T02:28:25;6.10;99.90
52127;DHT22;38120;53.176;6.614;2024-01-30T02:30:51;6.20;99.90
52127;DHT22;38120;53.176;6.614;2024-01-30T02:33:17;6.80;99.90
52127;DHT22;38120;53.176;6.614;2024-01-30T02:35:43;6.20;99.90
52127;DHT22;38120;53.176;6.614;2024-01-30T02:38:08;6.80;99.90
52127;DHT22;38120;53.176;6.614;2024-01-30T02:40:34;6.20;99.90
52127;DHT22;38120;53.176;6.614;2024-01-30T02:43:01;6.20;99.90
52127;DHT22;38120;53.176;6.614;2024-01-30T02:45:26;6.20;99.90
52127;DHT22;38120;53.176;6.614;2024-01-30T02:47:52;6.20;99.90
52127;DHT22;38120;53.176;6.614;2024-01-30T02:50:18;6.20;99.90
52127;DHT22;38120;53.176;6.614;2024-01-30T02:52:43;6.30;99.90
52127;DHT22;38120;53.176;6.614;2024-01-30T02:55:09;6.30;99.90
52127;DHT22;38120;53.176;6.614;2024-01-30T02:57:40;6.30;99.90
52127;DHT22;38120;53.176;6.614;2024-01-30T03:00:06;6.30;99.90
52127;DHT22;38120;53.176;6.614;2024-01-30T03:02:35;6.30;99.90
52127;DHT22;38120;53.176;6.614;2024-01-30T03:05:00;6.50;99.90
52127;DHT22;38120;53.176;6.614;2024-01-30T03:07:26;6.30;99.90
52127;DHT22;38120;53.176;6.614;2024-01-30T03:09:52;6.60;99.90
52127;DHT22;38120;53.176;6.614;2024-01-30T03:12:18;6.40;99.90
52127;DHT22;38120;53.176;6.614;2024-01-30T03:14:43;6.30;99.90
52127;DHT22;38120;53.176;6.614;2024-01-30T03:17:09;6.30;99.90
52127;DHT22;38120;53.176;6.614;2024-01-30T03:19:35;6.30;99.90
52127;DHT22;38120;53.176;6.614;2024-01-30T03:22:00;6.30;99.90
52127;DHT22;38120;53.176;6.614;2024-01-30T03:24:26;6.50;99.90
52127;DHT22;38120;53.176;6.614;2024-01-30T03:26:52;6.30;99.90
52127;DHT22;38120;53.176;6.614;2024-01-30T03:29:18;6.90;99.90
52127;DHT22;38120;53.176;6.614;2024-01-30T03:31:44;6.40;99.90
52127;DHT22;38120;53.176;6.614;2024-01-30T03:34:09;6.30;99.90
52127;DHT22;38120;53.176;6.614;2024-01-30T03:36:35;6.80;99.90
52127;DHT22;38120;53.176;6.614;2024-01-30T03:39:01;6.30;99.90
52127;DHT22;38120;53.176;6.614;2024-01-30T03:41:27;6.30;99.90
52127;DHT22;38120;53.176;6.614;2024-01-30T03:43:52;6.30;99.90
52127;DHT22;38120;53.176;6.614;2024-01-30T03:46:18;6.30;99.90
52127;DHT22;38120;53.176;6.614;2024-01-30T03:48:45;6.30;99.90
52127;DHT22;38120;53.176;6.614;2024-01-30T03:51:11;6.30;99.90
52127;DHT22;38120;53.176;6.614;2024-01-30T03:53:40;6.30;99.90
52127;DHT22;38120;53.176;6.614;2024-01-30T03:56:07;6.30;99.90
52127;DHT22;38120;53.176;6.614;2024-01-30T03:58:33;6.30;99.90
52127;DHT22;38120;53.176;6.614;2024-01-30T04:00:59;6.20;99.90
52127;DHT22;38120;53.176;6.614;2024-01-30T04:03:24;7.10;99.90
52127;DHT22;38120;53.176;6.614;2024-01-30T04:05:52;6.30;99.90
52127;DHT22;38120;53.176;6.614;2024-01-30T04:08:18;6.30;99.90
52127;DHT22;38120;53.176;6.614;2024-01-30T04:10:44;6.40;99.90
52127;DHT22;38120;53.176;6.614;2024-01-30T04:13:10;7.50;99.90
52127;DHT22;38120;53.176;6.614;2024-01-30T04:15:35;6.40;99.90
52127;DHT22;38120;53.176;6.614;2024-01-30T04:18:01;6.50;99.90
52127;DHT22;38120;53.176;6.614;2024-01-30T04:20:27;6.50;99.90
52127;DHT22;38120;53.176;6.614;2024-01-30T04:22:53;6.60;99.90
52127;DHT22;38120;53.176;6.614;2024-01-30T04:25:18;6.60;99.90
52127;DHT22;38120;53.176;6.614;2024-01-30T04:27:44;6.80;99.90
52127;DHT22;38120;53.176;6.614;2024-01-30T04:30:10;6.70;99.90
52127;DHT22;38120;53.176;6.614;2024-01-30T04:32:36;6.70;99.90
52127;DHT22;38120;53.176;6.614;2024-01-30T04:35:03;6.70;99.90
52127;DHT22;38120;53.176;6.614;2024-01-30T04:37:28;6.80;99.90
52127;DHT22;38120;53.176;6.614;2024-01-30T04:39:54;6.70;99.90
52127;DHT22;38120;53.176;6.614;2024-01-30T04:42:20;6.80;99.90
52127;DHT22;38120;53.176;6.614;2024-01-30T04:44:46;6.70;99.90
52127;DHT22;38120;53.176;6.614;2024-01-30T04:47:12;7.90;99.90
52127;DHT22;38120;53.176;6.614;2024-01-30T04:49:39;6.70;99.90
52127;DHT22;38120;53.176;6.614;2024-01-30T04:52:06;6.70;99.90
52127;DHT22;38120;53.176;6.614;2024-01-30T04:54:32;6.70;99.90
52127;DHT22;38120;53.176;6.614;2024-01-30T04:56:58;6.80;99.90
52127;DHT22;38120;53.176;6.614;2024-01-30T04:59:24;6.80;99.90
52127;DHT22;38120;53.176;6.614;2024-01-30T05:01:50;6.80;99.90
52127;DHT22;38120;53.176;6.614;2024-01-30T05:04:15;6.80;99.90
52127;DHT22;38120;53.176;6.614;2024-01-30T05:06:41;6.90;99.90
52127;DHT22;38120;53.176;6.614;2024-01-30T05:09:07;6.90;99.90
52127;DHT22;38120;53.176;6.614;2024-01-30T05:11:40;7.00;99.90
52127;DHT22;38120;53.176;6.614;2024-01-30T05:14:07;7.10;99.90
52127;DHT22;38120;53.176;6.614;2024-01-30T05:16:34;7.00;99.90
52127;DHT22;38120;53.176;6.614;2024-01-30T05:19:00;7.00;99.90
52127;DHT22;38120;53.176;6.614;2024-01-30T05:21:26;7.60;99.90
52127;DHT22;38120;53.176;6.614;2024-01-30T05:23:51;7.20;99.90
52127;DHT22;38120;53.176;6.614;2024-01-30T05:26:17;7.40;99.90
52127;DHT22;38120;53.176;6.614;2024-01-30T05:28:43;7.20;99.90
52127;DHT22;38120;53.176;6.614;2024-01-30T05:31:12;7.20;99.90
52127;DHT22;38120;53.176;6.614;2024-01-30T05:33:38;7.20;99.90
52127;DHT22;38120;53.176;6.614;2024-01-30T05:36:03;7.20;99.90
52127;DHT22;38120;53.176;6.614;2024-01-30T05:38:29;7.10;99.90
52127;DHT22;38120;53.176;6.614;2024-01-30T05:40:56;7.10;99.90
52127;DHT22;38120;53.176;6.614;2024-01-30T05:43:23;7.10;99.90
52127;DHT22;38120;53.176;6.614;2024-01-30T05:45:49;7.10;99.90
52127;DHT22;38120;53.176;6.614;2024-01-30T05:48:15;7.10;99.90
52127;DHT22;38120;53.176;6.614;2024-01-30T05:50:41;7.10;99.90
52127;DHT22;38120;53.176;6.614;2024-01-30T05:53:07;8.20;99.90
52127;DHT22;38120;53.176;6.614;2024-01-30T05:55:32;7.10;99.90
52127;DHT22;38120;53.176;6.614;2024-01-30T05:57:58;7.80;99.90
52127;DHT22;38120;53.176;6.614;2024-01-30T06:00:24;7.10;99.90
52127;DHT22;38120;53.176;6.614;2024-01-30T06:02:51;7.10;99.90
52127;DHT22;38120;53.176;6.614;2024-01-30T06:05:17;7.20;99.90
52127;DHT22;38120;53.176;6.614;2024-01-30T06:07:42;7.40;99.90
52127;DHT22;38120;53.176;6.614;2024-01-30T06:10:08;7.20;99.90
52127;DHT22;38120;53.176;6.614;2024-01-30T06:12:35;7.60;99.90
52127;DHT22;38120;53.176;6.614;2024-01-30T06:15:01;7.20;99.90
52127;DHT22;38120;53.176;6.614;2024-01-30T06:17:28;7.20;99.90
52127;DHT22;38120;53.176;6.614;2024-01-30T06:19:53;7.60;99.90
52127;DHT22;38120;53.176;6.614;2024-01-30T06:22:20;7.30;99.90
52127;DHT22;38120;53.176;6.614;2024-01-30T06:24:45;7.00;99.90
52127;DHT22;38120;53.176;6.614;2024-01-30T06:27:14;7.30;99.90
52127;DHT22;38120;53.176;6.614;2024-01-30T06:29:41;7.30;99.90
52127;DHT22;38120;53.176;6.614;2024-01-30T06:32:08;7.30;99.90
52127;DHT22;38120;53.176;6.614;2024-01-30T06:34:33;7.30;99.90
52127;DHT22;38120;53.176;6.614;2024-01-30T06:36:59;7.30;99.90
52127;DHT22;38120;53.176;6.614;2024-01-30T06:39:26;7.40;99.90
52127;DHT22;38120;53.176;6.614;2024-01-30T06:41:52;7.30;99.90
52127;DHT22;38120;53.176;6.614;2024-01-30T06:44:18;7.30;99.90
52127;DHT22;38120;53.176;6.614;2024-01-30T06:46:43;7.40;99.90
52127;DHT22;38120;53.176;6.614;2024-01-30T06:49:09;7.40;99.90
52127;DHT22;38120;53.176;6.614;2024-01-30T06:51:35;7.40;99.90
52127;DHT22;38120;53.176;6.614;2024-01-30T06:54:01;7.50;99.90
52127;DHT22;38120;53.176;6.614;2024-01-30T06:56:27;7.50;99.90
52127;DHT22;38120;53.176;6.614;2024-01-30T06:58:53;7.50;99.90
52127;DHT22;38120;53.176;6.614;2024-01-30T07:01:19;7.50;99.90
52127;DHT22;38120;53.176;6.614;2024-01-30T07:03:45;7.50;99.90
52127;DHT22;38120;53.176;6.614;2024-01-30T07:06:10;7.50;99.90
52127;DHT22;38120;53.176;6.614;2024-01-30T07:08:36;7.50;99.90
52127;DHT22;38120;53.176;6.614;2024-01-30T07:11:05;7.50;99.90
52127;DHT22;38120;53.176;6.614;2024-01-30T07:13:38;7.60;99.90
52127;DHT22;38120;53.176;6.614;2024-01-30T07:16:10;7.60;99.90
52127;DHT22;38120;53.176;6.614;2024-01-30T07:18:35;7.60;99.90
52127;DHT22;38120;53.176;6.614;2024-01-30T07:21:01;7.60;99.90
52127;DHT22;38120;53.176;6.614;2024-01-30T07:23:27;7.60;99.90
52127;DHT22;38120;53.176;6.614;2024-01-30T07:25:54;7.60;99.90
52127;DHT22;38120;53.176;6.614;2024-01-30T07:28:20;7.60;99.90
52127;DHT22;38120;53.176;6.614;2024-01-30T07:31:00;7.70;99.90
52127;DHT22;38120;53.176;6.614;2024-01-30T07:33:25;8.10;99.90
52127;DHT22;38120;53.176;6.614;2024-01-30T07:35:53;7.70;99.90
52127;DHT22;38120;53.176;6.614;2024-01-30T07:38:19;7.70;99.90
52127;DHT22;38120;53.176;6.614;2024-01-30T07:40:45;7.70;99.90
52127;DHT22;38120;53.176;6.614;2024-01-30T07:43:11;7.80;99.90
52127;DHT22;38120;53.176;6.614;2024-01-30T07:45:37;7.70;99.90
52127;DHT22;38120;53.176;6.614;2024-01-30T07:48:04;7.70;99.90
52127;DHT22;38120;53.176;6.614;2024-01-30T07:50:30;7.70;99.90
52127;DHT22;38120;53.176;6.614;2024-01-30T07:52:56;7.70;99.90
52127;DHT22;38120;53.176;6.614;2024-01-30T07:55:22;7.70;99.90
52127;DHT22;38120;53.176;6.614;2024-01-30T07:57:54;7.70;99.90
52127;DHT22;38120;53.176;6.614;2024-01-30T08:00:21;7.70;99.90
52127;DHT22;38120;53.176;6.614;2024-01-30T08:02:47;7.70;99.90
52127;DHT22;38120;53.176;6.614;2024-01-30T08:05:13;7.80;99.90
52127;DHT22;38120;53.176;6.614;2024-01-30T08:07:41;7.80;99.90
52127;DHT22;38120;53.176;6.614;2024-01-30T08:10:12;7.80;99.90
52127;DHT22;38120;53.176;6.614;2024-01-30T08:12:38;7.90;99.90
52127;DHT22;38120;53.176;6.614;2024-01-30T08:15:04;7.90;99.90
52127;DHT22;38120;53.176;6.614;2024-01-30T08:17:30;7.90;99.90
52127;DHT22;38120;53.176;6.614;2024-01-30T08:19:56;8.20;99.90
52127;DHT22;38120;53.176;6.614;2024-01-30T08:22:22;7.90;99.90
52127;DHT22;38120;53.176;6.614;2024-01-30T08:24:47;8.00;99.90
52127;DHT22;38120;53.176;6.614;2024-01-30T08:27:13;8.00;99.90
52127;DHT22;38120;53.176;6.614;2024-01-30T08:29:39;8.00;99.90
52127;DHT22;38120;53.176;6.614;2024-01-30T08:32:05;8.00;99.90
52127;DHT22;38120;53.176;6.614;2024-01-30T08:34:31;8.00;99.90
52127;DHT22;38120;53.176;6.614;2024-01-30T08:36:57;8.00;99.90
52127;DHT22;38120;53.176;6.614;2024-01-30T08:39:23;8.10;99.90
52127;DHT22;38120;53.176;6.614;2024-01-30T08:41:49;8.10;99.90
52127;DHT22;38120;53.176;6.614;2024-01-30T08:44:14;8.20;99.90
52127;DHT22;38120;53.176;6.614;2024-01-30T08:46:40;8.20;99.90
52127;DHT22;38120;53.176;6.614;2024-01-30T08:49:06;8.30;99.90
52127;DHT22;38120;53.176;6.614;2024-01-30T08:51:31;8.30;99.90
52127;DHT22;38120;53.176;6.614;2024-01-30T08:53:57;8.30;99.90
52127;DHT22;38120;53.176;6.614;2024-01-30T08:56:23;8.40;99.90
52127;DHT22;38120;53.176;6.614;2024-01-30T08:58:48;8.40;99.90
52127;DHT22;38120;53.176;6.614;2024-01-30T09:01:14;8.40;99.90
52127;DHT22;38120;53.176;6.614;2024-01-30T09:03:40;8.50;99.90
52127;DHT22;38120;53.176;6.614;2024-01-30T09:06:09;8.50;99.90
52127;DHT22;38120;53.176;6.614;2024-01-30T09:08:35;8.50;99.90
52127;DHT22;38120;53.176;6.614;2024-01-30T09:11:00;8.50;99.90
52127;DHT22;38120;53.176;6.614;2024-01-30T09:13:26;8.60;99.90
52127;DHT22;38120;53.176;6.614;2024-01-30T09:15:52;8.80;99.90
52127;DHT22;38120;53.176;6.614;2024-01-30T09:18:18;8.70;99.90
52127;DHT22;38120;53.176;6.614;2024-01-30T09:20:44;8.70;99.90
52127;DHT22;38120;53.176;6.614;2024-01-30T09:23:13;8.70;99.90
52127;DHT22;38120;53.176;6.614;2024-01-30T09:25:39;8.80;99.90
52127;DHT22;38120;53.176;6.614;2024-01-30T09:28:05;8.80;99.90
52127;DHT22;38120;53.176;6.614;2024-01-30T09:30:31;8.80;99.90
52127;DHT22;38120;53.176;6.614;2024-01-30T09:32:56;8.90;99.90
52127;DHT22;38120;53.176;6.614;2024-01-30T09:35:22;8.90;99.90
52127;DHT22;38120;53.176;6.614;2024-01-30T09:37:48;9.00;99.90
52127;DHT22;38120;53.176;6.614;2024-01-30T09:40:14;9.00;99.90
52127;DHT22;38120;53.176;6.614;2024-01-30T09:42:47;9.10;99.90
52127;DHT22;38120;53.176;6.614;2024-01-30T09:45:14;9.10;99.90
52127;DHT22;38120;53.176;6.614;2024-01-30T09:47:41;9.20;99.90
52127;DHT22;38120;53.176;6.614;2024-01-30T09:50:11;9.20;99.90
52127;DHT22;38120;53.176;6.614;2024-01-30T09:52:38;9.30;99.90
52127;DHT22;38120;53.176;6.614;2024-01-30T09:55:04;9.40;99.90
52127;DHT22;38120;53.176;6.614;2024-01-30T09:57:31;9.30;99.90
52127;DHT22;38120;53.176;6.614;2024-01-30T09:59:57;9.40;99.90
52127;DHT22;38120;53.176;6.614;2024-01-30T10:02:23;9.40;99.90
52127;DHT22;38120;53.176;6.614;2024-01-30T10:04:50;9.40;99.90
52127;DHT22;38120;53.176;6.614;2024-01-30T10:07:19;9.40;99.90
52127;DHT22;38120;53.176;6.614;2024-01-30T10:09:48;9.40;99.90
52127;DHT22;38120;53.176;6.614;2024-01-30T10:12:16;9.50;99.90
52127;DHT22;38120;53.176;6.614;2024-01-30T10:14:43;9.50;99.90
52127;DHT22;38120;53.176;6.614;2024-01-30T10:17:09;9.00;99.90
52127;DHT22;38120;53.176;6.614;2024-01-30T10:19:40;9.60;99.90
52127;DHT22;38120;53.176;6.614;2024-01-30T10:22:09;9.70;99.90
52127;DHT22;38120;53.176;6.614;2024-01-30T10:24:36;9.60;99.90
52127;DHT22;38120;53.176;6.614;2024-01-30T10:27:02;9.80;99.90
52127;DHT22;38120;53.176;6.614;2024-01-30T10:29:28;9.90;99.90
52127;DHT22;38120;53.176;6.614;2024-01-30T10:32:01;9.90;99.90
52127;DHT22;38120;53.176;6.614;2024-01-30T10:34:27;10.00;99.90
52127;DHT22;38120;53.176;6.614;2024-01-30T10:39:32;10.10;99.90
52127;DHT22;38120;53.176;6.614;2024-01-30T10:42:04;10.10;99.90
52127;DHT22;38120;53.176;6.614;2024-01-30T10:47:26;10.10;99.90
52127;DHT22;38120;53.176;6.614;2024-01-30T10:49:54;10.10;99.90
52127;DHT22;38120;53.176;6.614;2024-01-30T10:52:21;10.10;99.90
52127;DHT22;38120;53.176;6.614;2024-01-30T10:54:50;10.10;99.90
52127;DHT22;38120;53.176;6.614;2024-01-30T10:57:17;9.40;99.90
52127;DHT22;38120;53.176;6.614;2024-01-30T10:59:43;10.20;99.90
52127;DHT22;38120;53.176;6.614;2024-01-30T11:02:10;10.10;99.90
52127;DHT22;38120;53.176;6.614;2024-01-30T11:04:46;10.10;99.90
52127;DHT22;38120;53.176;6.614;2024-01-30T11:07:18;10.20;99.90
52127;DHT22;38120;53.176;6.614;2024-01-30T11:12:24;10.20;99.90
52127;DHT22;38120;53.176;6.614;2024-01-30T11:15:05;10.20;99.90
52127;DHT22;38120;53.176;6.614;2024-01-30T11:17:50;10.20;99.90
52127;DHT22;38120;53.176;6.614;2024-01-30T11:20:30;10.20;99.90
52127;DHT22;38120;53.176;6.614;2024-01-30T11:23:03;10.20;99.90
52127;DHT22;38120;53.176;6.614;2024-01-30T11:25:32;10.20;99.90
52127;DHT22;38120;53.176;6.614;2024-01-30T11:27:58;10.20;99.90
52127;DHT22;38120;53.176;6.614;2024-01-30T11:30:26;10.20;99.90
52127;DHT22;38120;53.176;6.614;2024-01-30T11:33:05;10.20;99.90
52127;DHT22;38120;53.176;6.614;2024-01-30T11:35:33;10.20;99.90
52127;DHT22;38120;53.176;6.614;2024-01-30T11:37:59;10.20;99.90
52127;DHT22;38120;53.176;6.614;2024-01-30T11:40:30;10.20;99.90
52127;DHT22;38120;53.176;6.614;2024-01-30T11:42:56;10.30;99.90
52127;DHT22;38120;53.176;6.614;2024-01-30T11:45:23;10.20;99.90
52127;DHT22;38120;53.176;6.614;2024-01-30T11:47:49;10.10;99.90
52127;DHT22;38120;53.176;6.614;2024-01-30T11:50:15;10.10;99.90
52127;DHT22;38120;53.176;6.614;2024-01-30T11:52:41;10.00;99.90
52127;DHT22;38120;53.176;6.614;2024-01-30T11:55:09;10.00;99.90
52127;DHT22;38120;53.176;6.614;2024-01-30T11:57:35;10.00;99.90
52127;DHT22;38120;53.176;6.614;2024-01-30T12:00:05;9.90;99.90
52127;DHT22;38120;53.176;6.614;2024-01-30T12:02:39;9.90;99.90
52127;DHT22;38120;53.176;6.614;2024-01-30T12:05:06;9.90;99.90
52127;DHT22;38120;53.176;6.614;2024-01-30T12:07:32;9.80;99.90
52127;DHT22;38120;53.176;6.614;2024-01-30T12:09:58;9.80;99.90
52127;DHT22;38120;53.176;6.614;2024-01-30T12:12:28;9.70;99.90
52127;DHT22;38120;53.176;6.614;2024-01-30T12:14:55;9.70;99.90
52127;DHT22;38120;53.176;6.614;2024-01-30T12:17:39;9.70;99.90
52127;DHT22;38120;53.176;6.614;2024-01-30T12:22:37;9.60;99.90
52127;DHT22;38120;53.176;6.614;2024-01-30T12:25:10;9.70;99.90
52127;DHT22;38120;53.176;6.614;2024-01-30T12:27:37;9.60;99.90
52127;DHT22;38120;53.176;6.614;2024-01-30T12:30:10;9.70;99.90
52127;DHT22;38120;53.176;6.614;2024-01-30T12:32:46;9.70;99.90
52127;DHT22;38120;53.176;6.614;2024-01-30T12:35:14;9.70;99.90
52127;DHT22;38120;53.176;6.614;2024-01-30T12:37:41;9.80;99.90
52127;DHT22;38120;53.176;6.614;2024-01-30T12:40:08;9.80;99.90
52127;DHT22;38120;53.176;6.614;2024-01-30T12:42:35;9.50;99.90
52127;DHT22;38120;53.176;6.614;2024-01-30T12:45:04;9.80;99.90
52127;DHT22;38120;53.176;6.614;2024-01-30T12:47:30;9.70;99.90
52127;DHT22;38120;53.176;6.614;2024-01-30T12:50:00;9.80;99.90
52127;DHT22;38120;53.176;6.614;2024-01-30T12:52:26;9.80;99.90
52127;DHT22;38120;53.176;6.614;2024-01-30T12:54:52;9.70;99.90
52127;DHT22;38120;53.176;6.614;2024-01-30T12:57:29;9.70;99.90
52127;DHT22;38120;53.176;6.614;2024-01-30T12:59:54;9.70;99.90
52127;DHT22;38120;53.176;6.614;2024-01-30T13:02:20;9.60;99.90
52127;DHT22;38120;53.176;6.614;2024-01-30T13:04:48;9.50;99.90
52127;DHT22;38120;53.176;6.614;2024-01-30T13:07:13;9.40;99.90
52127;DHT22;38120;53.176;6.614;2024-01-30T13:09:39;9.30;99.90
52127;DHT22;38120;53.176;6.614;2024-01-30T13:12:05;9.30;99.90
52127;DHT22;38120;53.176;6.614;2024-01-30T13:14:31;9.40;99.90
52127;DHT22;38120;53.176;6.614;2024-01-30T13:16:56;9.40;99.90
52127;DHT22;38120;53.176;6.614;2024-01-30T13:19:22;9.40;99.90
52127;DHT22;38120;53.176;6.614;2024-01-30T13:21:48;9.40;99.90
52127;DHT22;38120;53.176;6.614;2024-01-30T13:24:14;9.50;99.90
52127;DHT22;38120;53.176;6.614;2024-01-30T13:26:40;9.40;99.90
52127;DHT22;38120;53.176;6.614;2024-01-30T13:29:08;9.50;99.90
52127;DHT22;38120;53.176;6.614;2024-01-30T13:31:33;9.50;99.90
52127;DHT22;38120;53.176;6.614;2024-01-30T13:34:00;9.60;99.90
52127;DHT22;38120;53.176;6.614;2024-01-30T13:36:25;9.60;99.90
52127;DHT22;38120;53.176;6.614;2024-01-30T13:38:51;9.60;99.90
52127;DHT22;38120;53.176;6.614;2024-01-30T13:41:17;9.60;99.90
52127;DHT22;38120;53.176;6.614;2024-01-30T13:43:44;9.60;99.90
52127;DHT22;38120;53.176;6.614;2024-01-30T13:46:10;9.60;99.90
52127;DHT22;38120;53.176;6.614;2024-01-30T13:48:36;9.50;99.90
52127;DHT22;38120;53.176;6.614;2024-01-30T13:51:01;9.50;99.90
52127;DHT22;38120;53.176;6.614;2024-01-30T13:53:27;9.50;99.90
52127;DHT22;38120;53.176;6.614;2024-01-30T13:55:53;9.50;99.90
52127;DHT22;38120;53.176;6.614;2024-01-30T13:58:19;9.50;99.90
52127;DHT22;38120;53.176;6.614;2024-01-30T14:00:46;9.50;99.90
52127;DHT22;38120;53.176;6.614;2024-01-30T14:03:12;9.50;99.90
52127;DHT22;38120;53.176;6.614;2024-01-30T14:05:38;9.50;99.90
52127;DHT22;38120;53.176;6.614;2024-01-30T14:08:04;9.40;99.90
52127;DHT22;38120;53.176;6.614;2024-01-30T14:10:31;9.40;99.90
52127;DHT22;38120;53.176;6.614;2024-01-30T14:12:56;9.40;99.90
52127;DHT22;38120;53.176;6.614;2024-01-30T14:15:22;9.40;99.90
52127;DHT22;38120;53.176;6.614;2024-01-30T14:17:48;9.40;99.90
52127;DHT22;38120;53.176;6.614;2024-01-30T14:20:15;9.40;99.90
52127;DHT22;38120;53.176;6.614;2024-01-30T14:22:44;9.40;99.90
52127;DHT22;38120;53.176;6.614;2024-01-30T14:25:09;9.30;99.90
52127;DHT22;38120;53.176;6.614;2024-01-30T14:27:36;9.30;99.90
52127;DHT22;38120;53.176;6.614;2024-01-30T14:30:02;9.20;99.90
52127;DHT22;38120;53.176;6.614;2024-01-30T14:32:28;9.20;99.90
52127;DHT22;38120;53.176;6.614;2024-01-30T14:34:54;9.00;99.90
52127;DHT22;38120;53.176;6.614;2024-01-30T14:37:23;9.00;99.90
52127;DHT22;38120;53.176;6.614;2024-01-30T14:39:49;8.90;99.90
52127;DHT22;38120;53.176;6.614;2024-01-30T14:42:15;8.90;99.90
52127;DHT22;38120;53.176;6.614;2024-01-30T14:44:42;8.90;99.90
52127;DHT22;38120;53.176;6.614;2024-01-30T14:47:08;8.90;99.90
52127;DHT22;38120;53.176;6.614;2024-01-30T14:49:34;8.80;99.90
52127;DHT22;38120;53.176;6.614;2024-01-30T14:52:00;8.80;99.90
52127;DHT22;38120;53.176;6.614;2024-01-30T14:54:26;8.80;99.90
52127;DHT22;38120;53.176;6.614;2024-01-30T14:56:52;8.80;99.90
52127;DHT22;38120;53.176;6.614;2024-01-30T14:59:18;8.70;99.90
52127;DHT22;38120;53.176;6.614;2024-01-30T15:01:44;8.70;99.90
52127;DHT22;38120;53.176;6.614;2024-01-30T15:04:10;8.70;99.90
52127;DHT22;38120;53.176;6.614;2024-01-30T15:06:37;8.70;99.90
52127;DHT22;38120;53.176;6.614;2024-01-30T15:09:03;8.60;99.90
52127;DHT22;38120;53.176;6.614;2024-01-30T15:11:29;8.60;99.90
52127;DHT22;38120;53.176;6.614;2024-01-30T15:13:54;8.60;99.90
52127;DHT22;38120;53.176;6.614;2024-01-30T15:16:20;8.60;99.90
52127;DHT22;38120;53.176;6.614;2024-01-30T15:18:46;8.70;99.90
52127;DHT22;38120;53.176;6.614;2024-01-30T15:21:12;8.60;99.90
52127;DHT22;38120;53.176;6.614;2024-01-30T15:23:38;8.60;99.90
52127;DHT22;38120;53.176;6.614;2024-01-30T15:26:04;8.50;99.90
52127;DHT22;38120;53.176;6.614;2024-01-30T15:28:37;8.50;99.90
52127;DHT22;38120;53.176;6.614;2024-01-30T15:31:04;8.60;99.90
52127;DHT22;38120;53.176;6.614;2024-01-30T15:33:31;8.60;99.90
52127;DHT22;38120;53.176;6.614;2024-01-30T15:36:00;9.50;99.90
52127;DHT22;38120;53.176;6.614;2024-01-30T15:38:26;8.50;99.90
52127;DHT22;38120;53.176;6.614;2024-01-30T15:40:53;8.60;99.90
52127;DHT22;38120;53.176;6.614;2024-01-30T15:43:19;8.60;99.90
52127;DHT22;38120;53.176;6.614;2024-01-30T15:45:44;8.50;99.90
52127;DHT22;38120;53.176;6.614;2024-01-30T15:48:10;8.60;99.90
52127;DHT22;38120;53.176;6.614;2024-01-30T15:50:36;8.60;99.90
52127;DHT22;38120;53.176;6.614;2024-01-30T15:53:03;8.50;99.90